METAR Data
IDs: Format: Raw Decoded Include TAF

Data at: 0128 UTC 20 Jul 2019

METAR for:KCSQ (Creston Muni, IA, US)
Text:KCSQ 200115Z AUTO 20012G17KT 10SM CLR 31/25 A2976 RMK AO2
Temperature: 31.0°C ( 88°F)
Dewpoint: 25.0°C ( 77°F) [RH = 71%]
Pressure (altimeter):29.76 inches Hg (1007.9 mb)
Winds:from the SSW (200 degrees) at 14 MPH (12 knots; 6.2 m/s) gusting to 20 MPH (17 knots; 8.7 m/s)
Visibility:10 or more sm (16+ km)
Ceiling:at least 12,000 feet AGL
Clouds:sky clear below 12,000 feet AGL
QC Flag:automated observation with no human augmentation